Lexington, MA

9:49 AM EDT on April 23, 2017 (GMT -0400)
Lexington Hi | | Change Station

Elev 226 ft 42.44 °N, 71.23 °W | Updated 8 minutes ago

Clear
Clear
53.2 °F
Feels Like 53.2 °F
N
0.7
Wind Variable Wind from West
Gusts 3.1 mph

Today
High -- | Low -- °F
--% Chance of Precip.
Yesterday
High -- | Low -- °F
Precip. -- in
Pressure 30.12 in
Visibility 10.0 miles
Clouds Clear
Dew Point 42 °F
Humidity 65%
Rainfall 0.00 in
Snow Depth Not available.
5:51 AM 7:35 PM
Waning Crescent, 12% visible
METAR KBED 231256Z 34007KT 10SM CLR 10/02 A3008 RMK AO2 SLP199 T01000022
Pressure 30.12 in
Visibility 10.0 miles
Clouds Clear
Dew Point 42 °F
Humidity 65%
Rainfall 0.00 in
Snow Depth Not available.
5:51 AM 7:35 PM
Waning Crescent, 12% visible
METAR KBED 231256Z 34007KT 10SM CLR 10/02 A3008 RMK AO2 SLP199 T01000022

Get Severe Weather Alerts

Thanks for signing up!

Be on the lookout for a verification email in your inbox.

You'll start receiving the daily forecast at 8 AM.

×

10-Day Weather Forecast

Almanac

Astronomy

Apr. 23, 2017 Rise Set
Actual Time
Civil Twilight
Nautical Twilight
Astronomical Twilight
Moon
Length of Visible Light
Length of Day
Tomorrow will be .
, % of the Moon is Illuminated

Today's Extremes

State Highs State Lows

Community

WunderPhotos

WunderBlog® & News

Nearby

Air Quality

  Air Quality AQ Index Pollutant
Not available.

Snow Depth

Station Depth Elevation

Earthquake Activity

City Distance Mag. Time & Date
Minimum magnitude displayed is 2.5.

Coastal Water Temperatures

Place Temperature

Stations

Nearby Weather Stations

Station Location Temp. Windchill Dew Point Humidity Wind Precip. Elev Updated Type
                   

Watches & Warnings

There are currently no watches in effect.